Time,TemperatureF,DewpointF,PressureIn,WindDirection,WindDirectionDegrees,WindSpeedMPH,WindSpeedGustMPH,Humidity,HourlyPrecipIn,Conditions,Clouds,dailyrainin,SoftwareType,DateUTC
2013-03-27 09:11:00,48.2,32.3,30.00,West,269,2.7,3.6,54,0.00,,CLR,0.00,VWS V14.00,2013-03-27 13:11:00,
2013-03-27 09:12:00,48.7,32.8,30.00,NNE,31,3.6,3.6,54,0.00,,CLR,0.00,VWS V14.00,2013-03-27 13:12:00,
2013-03-27 09:17:00,49.1,33.2,30.00,NNW,329,5.8,8.1,54,0.00,,CLR,0.00,VWS V14.00,2013-03-27 13:17:00,
2013-03-27 09:22:00,49.5,33.5,30.00,WNW,285,5.4,8.1,54,0.00,,CLR,0.00,VWS V14.00,2013-03-27 13:22:00,
2013-03-27 09:28:00,49.8,33.9,30.00,NW,312,4.0,10.5,54,0.00,,CLR,0.00,VWS V14.00,2013-03-27 13:28:00,
2013-03-27 09:33:00,50.5,34.5,30.00,NW,313,3.6,9.6,54,0.00,,CLR,0.00,VWS V14.00,2013-03-27 13:33:00,
2013-03-27 09:38:00,51.6,35.5,30.00,NNE,33,3.1,9.6,54,0.00,,CLR,0.00,VWS V14.00,2013-03-27 13:38:00,
2013-03-27 09:43:00,51.6,35.5,30.00,NE,48,5.4,9.6,54,0.00,,CLR,0.00,VWS V14.00,2013-03-27 13:43:00,
2013-03-27 09:48:00,51.6,35.5,30.03,NNW,331,3.6,9.6,54,0.00,,CLR,0.00,VWS V14.00,2013-03-27 13:48:00,
2013-03-27 09:53:00,51.8,35.2,30.03,NNE,22,4.9,9.6,53,0.00,,CLR,0.00,VWS V14.00,2013-03-27 13:53:00,
2013-03-27 09:58:00,52.2,35.6,30.03,WNW,285,6.3,10.1,53,0.00,,CLR,0.00,VWS V14.00,2013-03-27 13:58:00,
2013-03-27 10:03:00,52.5,35.9,30.03,NNW,328,5.4,10.5,53,0.00,,CLR,0.00,VWS V14.00,2013-03-27 14:03:00,
2013-03-27 10:08:00,53.1,36.4,30.03,NW,312,6.3,10.5,53,0.00,,CLR,0.00,VWS V14.00,2013-03-27 14:08:00,
2013-03-27 10:13:00,54.0,37.2,30.03,NNW,348,3.6,11.0,53,0.00,,CLR,0.00,VWS V14.00,2013-03-27 14:13:00,
2013-03-27 10:18:00,54.5,37.7,30.03,NNW,329,2.2,11.0,53,0.00,,CLR,0.00,VWS V14.00,2013-03-27 14:18:00,
2013-03-27 10:24:00,55.8,38.4,30.03,NW,320,5.4,11.0,52,0.00,,CLR,0.00,VWS V14.00,2013-03-27 14:24:00,
2013-03-27 10:29:00,56.3,38.9,30.03,North,11,5.4,11.0,52,0.00,,CLR,0.00,VWS V14.00,2013-03-27 14:29:00,
2013-03-27 10:34:00,56.3,38.9,30.03,NNW,330,9.6,9.6,52,0.00,,CLR,0.00,VWS V14.00,2013-03-27 14:34:00,
2013-03-27 10:39:00,57.0,39.6,30.03,North,11,3.6,9.6,52,0.00,,CLR,0.00,VWS V14.00,2013-03-27 14:39:00,
2013-03-27 10:44:00,57.7,40.2,30.03,WSW,256,4.0,9.6,52,0.00,,CLR,0.00,VWS V14.00,2013-03-27 14:44:00,
2013-03-27 10:49:00,57.6,40.1,30.03,NW,314,4.0,11.4,52,0.00,,CLR,0.00,VWS V14.00,2013-03-27 14:49:00,
2013-03-27 10:54:00,58.1,40.6,30.03,NNE,13,2.7,11.4,52,0.00,,CLR,0.00,VWS V14.00,2013-03-27 14:54:00,
2013-03-27 10:59:00,58.5,40.9,30.03,NW,317,2.7,11.4,52,0.00,,CLR,0.00,VWS V14.00,2013-03-27 14:59:00,
2013-03-27 11:04:00,59.0,41.4,30.03,NNE,13,4.0,5.8,52,0.00,,CLR,0.00,VWS V14.00,2013-03-27 15:04:00,
2013-03-27 11:10:00,59.2,41.6,30.03,WNW,302,4.0,8.7,52,0.00,,CLR,0.00,VWS V14.00,2013-03-27 15:10:00,
2013-03-27 11:15:00,59.7,42.1,30.03,NW,318,5.8,8.7,52,0.00,,CLR,0.00,VWS V14.00,2013-03-27 15:15:00,
2013-03-27 11:20:00,59.5,41.9,30.03,WNW,298,5.8,8.7,52,0.00,,CLR,0.00,VWS V14.00,2013-03-27 15:20:00,
2013-03-27 11:25:00,60.1,42.4,30.03,West,270,3.6,8.7,52,0.00,,CLR,0.00,VWS V14.00,2013-03-27 15:25:00,
2013-03-27 11:30:00,60.3,42.6,30.03,North,357,7.2,7.2,52,0.00,,CLR,0.00,VWS V14.00,2013-03-27 15:30:00,
2013-03-27 11:35:00,60.4,42.8,30.03,North,353,5.4,7.2,52,0.00,,CLR,0.00,VWS V14.00,2013-03-27 15:35:00,
2013-03-27 11:40:00,61.0,42.7,30.03,North,353,3.6,7.2,51,0.00,,CLR,0.00,VWS V14.00,2013-03-27 15:40:00,
2013-03-27 11:45:00,60.6,42.9,30.03,NW,304,2.2,8.3,52,0.00,,CLR,0.00,VWS V14.00,2013-03-27 15:45:00,
2013-03-27 11:51:00,62.4,44.1,30.03,NE,49,3.1,8.3,51,0.00,,CLR,0.00,VWS V14.00,2013-03-27 15:51:00,
2013-03-27 11:56:00,61.9,43.6,30.03,NW,314,7.6,8.3,51,0.00,,CLR,0.00,VWS V14.00,2013-03-27 15:56:00,
2013-03-27 12:01:00,61.0,42.7,30.00,West,281,3.6,8.7,51,0.00,,CLR,0.00,VWS V14.00,2013-03-27 16:01:00,
2013-03-27 12:06:00,61.2,42.9,30.00,NW,311,2.7,8.7,51,0.00,,CLR,0.00,VWS V14.00,2013-03-27 16:06:00,
2013-03-27 12:12:00,61.2,42.9,30.00,WNW,298,6.3,8.7,51,0.00,,CLR,0.00,VWS V14.00,2013-03-27 16:12:00,
2013-03-27 12:17:00,60.8,42.6,30.00,WNW,292,8.1,8.7,51,0.00,,CLR,0.00,VWS V14.00,2013-03-27 16:17:00,
2013-03-27 12:23:00,61.9,43.6,30.00,North,349,6.3,8.7,51,0.00,,CLR,0.00,VWS V14.00,2013-03-27 16:23:00,
2013-03-27 12:27:00,61.9,43.6,30.00,WSW,258,5.4,8.7,51,0.00,,CLR,0.00,VWS V14.00,2013-03-27 16:27:00,
2013-03-27 12:33:00,61.2,42.9,30.00,NW,314,2.2,10.1,51,0.00,,CLR,0.00,VWS V14.00,2013-03-27 16:33:00,
2013-03-27 12:38:00,62.1,43.7,30.00,WSW,238,3.6,10.1,51,0.00,,CLR,0.00,VWS V14.00,2013-03-27 16:38:00,
2013-03-27 12:43:00,62.2,43.9,30.00,NW,324,4.0,10.1,51,0.00,,CLR,0.00,VWS V14.00,2013-03-27 16:43:00,
2013-03-27 12:48:00,62.8,44.4,30.00,NNE,18,6.3,10.1,51,0.00,,CLR,0.00,VWS V14.00,2013-03-27 16:48:00,
2013-03-27 12:53:00,63.0,44.6,30.00,NW,304,6.3,10.1,51,0.00,,CLR,0.00,VWS V14.00,2013-03-27 16:53:00,
2013-03-27 12:58:00,63.0,44.6,30.00,SW,228,5.8,10.1,51,0.00,,CLR,0.00,VWS V14.00,2013-03-27 16:58:00,
2013-03-27 13:03:00,62.4,44.1,30.00,NW,304,8.3,8.7,51,0.00,,CLR,0.00,VWS V14.00,2013-03-27 17:03:00,
2013-03-27 13:08:00,62.8,44.4,30.00,West,266,4.5,8.7,51,0.00,,CLR,0.00,VWS V14.00,2013-03-27 17:08:00,
2013-03-27 13:13:00,62.6,44.2,30.00,West,271,5.4,8.7,51,0.00,,CLR,0.00,VWS V14.00,2013-03-27 17:13:00,
2013-03-27 13:18:00,62.4,44.1,30.00,NNW,334,4.9,8.7,51,0.00,,CLR,0.00,VWS V14.00,2013-03-27 17:18:00,
2013-03-27 13:23:00,63.5,45.1,30.00,NW,312,3.6,8.7,51,0.00,,CLR,0.00,VWS V14.00,2013-03-27 17:23:00,
2013-03-27 13:28:00,63.5,45.1,30.00,West,274,7.6,8.7,51,0.00,,CLR,0.00,VWS V14.00,2013-03-27 17:28:00,
2013-03-27 13:33:00,63.1,44.7,30.00,SW,214,2.2,5.8,51,0.00,,CLR,0.00,VWS V14.00,2013-03-27 17:33:00,
2013-03-27 13:38:00,64.0,45.6,30.00,WNW,291,10.1,10.1,51,0.00,,CLR,0.00,VWS V14.00,2013-03-27 17:38:00,
2013-03-27 13:43:00,64.0,45.6,30.00,SW,215,5.4,10.1,51,0.00,,CLR,0.00,VWS V14.00,2013-03-27 17:43:00,
2013-03-27 13:49:00,64.8,45.7,30.00,West,272,5.8,10.1,50,0.00,,CLR,0.00,VWS V14.00,2013-03-27 17:49:00,
2013-03-27 13:54:00,65.7,46.5,30.00,NW,306,3.1,10.1,50,0.00,,CLR,0.00,VWS V14.00,2013-03-27 17:54:00,
2013-03-27 13:59:00,66.9,47.7,30.00,NNW,341,3.6,10.1,50,0.00,,CLR,0.00,VWS V14.00,2013-03-27 17:59:00,
2013-03-27 14:04:00,65.8,46.7,30.00,NW,323,3.6,8.7,50,0.00,,CLR,0.00,VWS V14.00,2013-03-27 18:04:00,
2013-03-27 14:09:00,65.5,46.4,30.00,North,3,0.0,8.7,50,0.00,,CLR,0.00,VWS V14.00,2013-03-27 18:09:00,
2013-03-27 14:14:00,65.3,46.2,30.00,NNW,348,5.8,8.7,50,0.00,,CLR,0.00,VWS V14.00,2013-03-27 18:14:00,
2013-03-27 14:19:00,65.7,46.5,30.00,NW,310,2.7,10.1,50,0.00,,CLR,0.00,VWS V14.00,2013-03-27 18:19:00,
2013-03-27 14:24:00,66.6,47.4,30.00,NW,314,3.1,10.1,50,0.00,,CLR,0.00,VWS V14.00,2013-03-27 18:24:00,
2013-03-27 14:29:00,66.9,47.7,29.97,NW,311,6.3,10.1,50,0.00,,CLR,0.00,VWS V14.00,2013-03-27 18:29:00,
2013-03-27 14:34:00,67.5,48.2,29.97,West,273,5.4,8.3,50,0.00,,CLR,0.00,VWS V14.00,2013-03-27 18:34:00,
2013-03-27 14:39:00,67.1,47.9,29.97,NNE,25,2.7,8.3,50,0.00,,CLR,0.00,VWS V14.00,2013-03-27 18:39:00,
2013-03-27 14:44:00,68.9,49.5,29.97,North,357,3.1,8.3,50,0.00,,CLR,0.00,VWS V14.00,2013-03-27 18:44:00,
2013-03-27 14:49:00,67.1,17.9,29.97,WNW,286,6.3,10.1,15,0.00,,CLR,0.00,VWS V14.00,2013-03-27 18:49:00,
2013-03-27 14:55:00,67.3,18.1,29.97,NNW,330,6.3,10.1,15,0.00,,CLR,0.00,VWS V14.00,2013-03-27 18:55:00,
2013-03-27 15:00:00,68.2,18.8,29.97,SW,227,2.7,7.2,15,0.00,,CLR,0.00,VWS V14.00,2013-03-27 19:00:00,
2013-03-27 15:05:00,68.7,19.2,29.97,North,357,4.9,7.2,15,0.00,,CLR,0.00,VWS V14.00,2013-03-27 19:05:00,
2013-03-27 15:10:00,68.2,18.8,29.97,WNW,299,3.6,8.3,15,0.00,,CLR,0.00,VWS V14.00,2013-03-27 19:10:00,
2013-03-27 15:15:00,68.2,18.8,29.97,NNW,333,5.4,11.0,15,0.00,,CLR,0.00,VWS V14.00,2013-03-27 19:15:00,
2013-03-27 15:20:00,68.7,19.2,29.97,North,11,3.6,11.0,15,0.00,,CLR,0.00,VWS V14.00,2013-03-27 19:20:00,
2013-03-27 15:25:00,69.4,19.8,29.97,WNW,282,5.8,11.0,15,0.00,,CLR,0.00,VWS V14.00,2013-03-27 19:25:00,
2013-03-27 15:30:00,68.2,18.8,29.97,NNE,33,4.0,4.0,15,0.00,,CLR,0.00,VWS V14.00,2013-03-27 19:30:00,
2013-03-27 15:36:00,69.8,18.5,29.97,NW,308,3.6,8.3,14,0.00,,CLR,0.00,VWS V14.00,2013-03-27 19:36:00,
2013-03-27 21:37:00,51.8,9.7,30.00,NNE,16,0.0,0.0,18,0.00,,CLR,0.00,VWS V14.00,2013-03-28 01:37:00,
2013-03-27 21:42:00,51.3,10.4,30.00,NNE,16,0.0,0.0,19,0.00,,CLR,0.00,VWS V14.00,2013-03-28 01:42:00,
2013-03-27 21:47:00,50.7,10.0,30.00,NNE,16,0.0,0.0,19,0.00,,CLR,0.00,VWS V14.00,2013-03-28 01:47:00,
2013-03-27 21:52:00,50.2,9.5,30.00,NNE,16,0.0,0.0,19,0.00,,CLR,0.00,VWS V14.00,2013-03-28 01:52:00,
2013-03-27 21:57:00,50.0,9.4,30.00,NNE,16,0.0,0.0,19,0.00,,CLR,0.00,VWS V14.00,2013-03-28 01:57:00,
2013-03-27 22:02:00,49.6,9.1,30.00,NNE,16,0.0,0.0,19,0.00,,CLR,0.00,VWS V14.00,2013-03-28 02:02:00,
2013-03-27 22:07:00,49.5,8.9,30.00,NNE,16,0.0,0.0,19,0.00,,CLR,0.00,VWS V14.00,2013-03-28 02:07:00,
2013-03-27 22:13:00,49.3,8.8,30.00,NNE,16,0.0,0.0,19,0.00,,CLR,0.00,VWS V14.00,2013-03-28 02:13:00,
2013-03-27 22:18:00,49.3,8.8,30.00,NNE,16,0.0,0.0,19,0.00,,CLR,0.00,VWS V14.00,2013-03-28 02:18:00,
2013-03-27 22:23:00,49.1,8.6,30.00,NNE,16,0.0,0.0,19,0.00,,CLR,0.00,VWS V14.00,2013-03-28 02:23:00,
2013-03-27 22:28:00,48.9,8.5,30.00,NNE,16,0.0,0.0,19,0.00,,CLR,0.00,VWS V14.00,2013-03-28 02:28:00,
2013-03-27 22:33:00,48.7,8.3,30.00,NNE,16,0.0,0.0,19,0.00,,CLR,0.00,VWS V14.00,2013-03-28 02:33:00,
2013-03-27 22:38:00,48.6,8.2,30.00,NNE,16,0.0,0.0,19,0.00,,CLR,0.00,VWS V14.00,2013-03-28 02:38:00,
2013-03-27 22:43:00,48.6,8.2,30.00,NNE,16,0.0,0.0,19,0.00,,CLR,0.00,VWS V14.00,2013-03-28 02:43:00,